Time;durP1;ratioP1;P1;durP2;ratioP2;P2;SDS_P1;SDS_P2;PMS_P1;PMS_P2;Temp;Humidity;BMP_temperature;BMP_pressure;BME280_temperature;BME280_humidity;BME280_pressure;Samples;Min_cycle;Max_cycle;Signal;HPM_P1;HPM_P2
2022/08/25 00:01:09;;;;;;;3.42;2.00;;;24.70;99.90;;;;;;5048261;28;20676;-47
2022/08/25 00:03:36;;;;;;;3.05;2.50;;;24.70;99.90;;;;;;5047626;28;20439;-45
2022/08/25 00:06:05;;;;;;;5.43;2.63;;;24.70;99.90;;;;;;5049596;28;20308;-50
2022/08/25 00:08:33;;;;;;;2.30;2.10;;;24.70;99.90;;;;;;5045765;28;20194;-42
2022/08/25 00:11:01;;;;;;;5.47;3.03;;;24.70;99.90;;;;;;5049695;28;20217;-48
2022/08/25 00:13:29;;;;;;;3.38;2.50;;;24.70;99.90;;;;;;5049131;28;21066;-48
2022/08/25 00:15:56;;;;;;;4.25;2.72;;;24.70;99.90;;;;;;5048303;28;20269;-48
2022/08/25 00:18:23;;;;;;;2.40;2.00;;;24.70;99.90;;;;;;5048295;28;20217;-51
2022/08/25 00:20:51;;;;;;;4.57;2.25;;;24.60;99.90;;;;;;5050543;28;20221;-45
2022/08/25 00:23:18;;;;;;;4.10;1.80;;;24.70;99.90;;;;;;5050868;28;20321;-46
2022/08/25 00:25:46;;;;;;;10.65;3.30;;;24.60;99.90;;;;;;5048820;28;20206;-45
2022/08/25 00:28:15;;;;;;;7.07;3.40;;;24.60;99.90;;;;;;5049702;28;20551;-47
2022/08/25 00:30:44;;;;;;;4.43;2.25;;;24.60;99.90;;;;;;5049539;28;20194;-45
2022/08/25 00:33:11;;;;;;;2.28;2.08;;;24.60;99.90;;;;;;5047958;28;20623;-46
2022/08/25 00:35:39;;;;;;;2.88;1.52;;;24.60;99.90;;;;;;5049532;28;20312;-43
2022/08/25 00:38:06;;;;;;;4.40;2.25;;;24.60;99.90;;;;;;5047038;28;20190;-45
2022/08/25 00:40:33;;;;;;;4.57;1.75;;;24.60;99.90;;;;;;5046623;28;20194;-49
2022/08/25 00:43:01;;;;;;;3.28;1.83;;;24.50;99.90;;;;;;5048396;28;20277;-45
2022/08/25 00:45:28;;;;;;;6.13;1.88;;;24.50;99.90;;;;;;5049165;28;20182;-47
2022/08/25 00:47:57;;;;;;;1.48;1.30;;;24.50;99.90;;;;;;5047586;28;20194;-44
2022/08/25 00:50:24;;;;;;;1.52;1.30;;;24.50;99.90;;;;;;5048593;28;20220;-44
2022/08/25 00:52:55;;;;;;;3.08;1.73;;;24.50;99.90;;;;;;5048293;28;20202;-46
2022/08/25 00:55:27;;;;;;;2.65;1.55;;;24.50;99.90;;;;;;5051225;28;20200;-44
2022/08/25 00:57:56;;;;;;;2.25;1.58;;;24.50;99.90;;;;;;5048607;28;20182;-44
2022/08/25 01:00:27;;;;;;;4.90;2.28;;;24.50;99.90;;;;;;5049650;28;20244;-45
2022/08/25 01:02:55;;;;;;;2.13;1.42;;;24.50;99.90;;;;;;5052973;28;20280;-44
2022/08/25 01:05:25;;;;;;;4.28;2.08;;;24.50;99.90;;;;;;5047058;28;20194;-43
2022/08/25 01:07:53;;;;;;;5.53;2.38;;;24.50;99.90;;;;;;5047970;28;20221;-49
2022/08/25 01:10:22;;;;;;;4.43;2.10;;;24.40;99.90;;;;;;5048466;28;20190;-45
2022/08/25 01:12:50;;;;;;;7.38;2.40;;;24.40;99.90;;;;;;5048037;28;20255;-51
2022/08/25 01:15:17;;;;;;;5.28;1.88;;;24.40;99.90;;;;;;5048131;28;20243;-51
2022/08/25 01:17:51;;;;;;;4.55;2.50;;;24.40;99.90;;;;;;5047566;28;20193;-50
2022/08/25 01:20:21;;;;;;;2.75;2.13;;;24.40;99.90;;;;;;5045761;28;20214;-50
2022/08/25 01:22:50;;;;;;;7.38;2.13;;;24.40;99.90;;;;;;5047931;28;20317;-49
2022/08/25 01:25:27;;;;;;;5.38;2.33;;;24.40;99.90;;;;;;5048183;28;20225;-49
2022/08/25 01:27:54;;;;;;;2.67;2.40;;;24.40;99.90;;;;;;5047228;28;20197;-49
2022/08/25 01:30:21;;;;;;;5.95;2.78;;;24.40;99.90;;;;;;5048713;28;20217;-47
2022/08/25 01:32:48;;;;;;;2.67;2.17;;;24.30;99.90;;;;;;5048330;28;20204;-47
2022/08/25 01:35:15;;;;;;;2.78;2.47;;;24.40;99.90;;;;;;5048089;28;20190;-48
2022/08/25 01:37:42;;;;;;;3.33;2.40;;;24.40;99.90;;;;;;5045821;28;20280;-46
2022/08/25 01:40:12;;;;;;;6.82;2.80;;;24.30;99.90;;;;;;5046227;28;20197;-46
2022/08/25 01:42:53;;;;;;;5.05;2.40;;;24.30;99.90;;;;;;5047501;28;20277;-47
2022/08/25 01:45:21;;;;;;;3.13;2.20;;;24.40;99.90;;;;;;5047940;28;20352;-47
2022/08/25 01:47:48;;;;;;;3.67;2.50;;;24.40;99.90;;;;;;5047096;28;20220;-51
2022/08/25 01:50:15;;;;;;;5.25;2.78;;;24.40;99.90;;;;;;5048152;28;20518;-43
2022/08/25 01:52:51;;;;;;;8.27;4.93;;;24.40;99.90;;;;;;5047237;28;20194;-48
2022/08/25 01:55:19;;;;;;;14.73;7.65;;;24.30;99.90;;;;;;5050577;28;20204;-46
2022/08/25 01:57:47;;;;;;;19.05;8.13;;;24.30;99.90;;;;;;5047559;28;20218;-43
2022/08/25 02:00:16;;;;;;;9.25;4.43;;;24.30;99.90;;;;;;5046718;28;20209;-43
2022/08/25 02:02:46;;;;;;;3.20;2.78;;;24.40;99.90;;;;;;5049281;28;20470;-43
2022/08/25 02:05:15;;;;;;;2.90;2.38;;;24.40;99.90;;;;;;5048101;28;20197;-51
2022/08/25 02:07:43;;;;;;;2.42;2.22;;;24.40;99.90;;;;;;5047495;28;20206;-45
2022/08/25 02:10:11;;;;;;;13.48;6.70;;;24.40;99.90;;;;;;5046944;28;20281;-47
2022/08/25 02:12:40;;;;;;;19.38;9.40;;;24.40;99.90;;;;;;5047894;28;20194;-49
2022/08/25 02:15:09;;;;;;;12.57;5.40;;;24.40;99.90;;;;;;5047729;28;20608;-44
2022/08/25 02:17:36;;;;;;;10.95;4.63;;;24.40;99.90;;;;;;5047205;28;20220;-43
2022/08/25 02:20:04;;;;;;;11.85;5.22;;;24.40;99.90;;;;;;5051573;28;20654;-43
2022/08/25 02:22:31;;;;;;;4.03;3.20;;;24.40;99.90;;;;;;5046854;28;20240;-44
2022/08/25 02:24:59;;;;;;;4.25;3.00;;;24.40;99.90;;;;;;5047468;28;20194;-49
2022/08/25 02:27:26;;;;;;;5.68;2.70;;;24.40;99.90;;;;;;5047645;28;20572;-47
2022/08/25 02:29:54;;;;;;;5.30;2.72;;;24.40;99.90;;;;;;5047551;28;20576;-44
2022/08/25 02:32:21;;;;;;;7.65;2.78;;;24.40;99.90;;;;;;5051230;28;20190;-44
2022/08/25 02:34:48;;;;;;;8.13;3.17;;;24.40;99.90;;;;;;5050824;28;20198;-42
2022/08/25 02:37:15;;;;;;;5.18;2.60;;;24.30;99.90;;;;;;5050842;28;20380;-45
2022/08/25 02:39:42;;;;;;;2.63;2.20;;;24.30;99.90;;;;;;5053093;28;20198;-45
2022/08/25 02:42:09;;;;;;;3.58;2.80;;;24.30;99.90;;;;;;5049949;28;20225;-44
2022/08/25 02:44:36;;;;;;;2.05;1.90;;;24.30;99.90;;;;;;5048823;28;20267;-43
2022/08/25 02:47:05;;;;;;;2.30;2.10;;;24.30;99.90;;;;;;5052645;28;20222;-46
2022/08/25 02:49:32;;;;;;;2.55;2.15;;;24.30;99.90;;;;;;5050063;28;20225;-43
2022/08/25 02:52:00;;;;;;;1.70;1.60;;;24.30;99.90;;;;;;5053243;28;20268;-45
2022/08/25 02:54:27;;;;;;;1.83;1.67;;;24.40;99.90;;;;;;5050411;28;20198;-44
2022/08/25 02:56:54;;;;;;;1.90;1.80;;;24.30;99.90;;;;;;5048329;28;20205;-45
2022/08/25 02:59:21;;;;;;;1.65;1.55;;;24.30;99.90;;;;;;5050237;28;20198;-42
2022/08/25 03:01:48;;;;;;;1.63;1.52;;;24.30;99.90;;;;;;5048953;28;20297;-45
2022/08/25 03:04:16;;;;;;;1.40;1.30;;;24.30;99.90;;;;;;5047884;28;20197;-45
2022/08/25 03:06:44;;;;;;;1.92;1.73;;;24.40;99.90;;;;;;5050817;28;20570;-43
2022/08/25 03:09:11;;;;;;;1.80;1.70;;;24.40;99.90;;;;;;5050291;28;20194;-42
2022/08/25 03:11:38;;;;;;;3.08;2.20;;;24.40;99.90;;;;;;5050703;28;20849;-43
2022/08/25 03:14:05;;;;;;;4.22;2.72;;;24.30;99.90;;;;;;5052253;28;20204;-42
2022/08/25 03:16:33;;;;;;;2.08;1.98;;;24.40;99.90;;;;;;5046805;28;20735;-45
2022/08/25 03:19:00;;;;;;;3.38;2.72;;;24.40;99.90;;;;;;5047891;28;20731;-42
2022/08/25 03:21:29;;;;;;;7.90;3.40;;;24.40;99.90;;;;;;5052135;28;20623;-43
2022/08/25 03:23:57;;;;;;;7.00;3.30;;;24.30;99.90;;;;;;5049862;28;20229;-44
2022/08/25 03:29:24;;;;;;;2.95;2.35;;;24.30;99.90;;;;;;5005618;28;20206;-43
2022/08/25 03:31:53;;;;;;;4.28;2.38;;;24.20;99.90;;;;;;5008782;28;20656;-42
2022/08/25 03:34:22;;;;;;;2.88;2.55;;;24.20;99.90;;;;;;5022535;28;20261;-43
2022/08/25 03:36:52;;;;;;;2.35;2.15;;;24.30;99.90;;;;;;5051062;28;20300;-43
2022/08/25 03:39:21;;;;;;;2.72;2.38;;;24.20;99.90;;;;;;5047116;28;20217;-43
2022/08/25 03:41:49;;;;;;;7.20;2.72;;;24.20;99.90;;;;;;5048629;28;20653;-43
2022/08/25 03:44:17;;;;;;;7.25;3.05;;;24.20;99.90;;;;;;5049172;28;20277;-46
2022/08/25 03:46:46;;;;;;;8.38;3.92;;;24.20;99.90;;;;;;5048485;28;20673;-43
2022/08/25 03:49:16;;;;;;;6.80;3.63;;;24.20;99.90;;;;;;5048753;28;20604;-44
2022/08/25 03:51:45;;;;;;;6.60;3.53;;;24.20;99.90;;;;;;5048032;28;20325;-45
2022/08/25 03:54:15;;;;;;;4.20;2.88;;;24.20;99.90;;;;;;5049223;28;20196;-43
2022/08/25 03:56:42;;;;;;;3.65;2.60;;;24.20;99.90;;;;;;5051741;28;20213;-43
2022/08/25 03:59:09;;;;;;;2.95;2.47;;;24.20;99.90;;;;;;5048948;28;20301;-45
2022/08/25 04:01:37;;;;;;;5.65;2.47;;;24.20;99.90;;;;;;5050662;28;20598;-48
2022/08/25 04:04:04;;;;;;;2.90;2.30;;;24.20;99.90;;;;;;5048666;28;20289;-42
2022/08/25 04:06:31;;;;;;;5.22;2.35;;;24.30;99.90;;;;;;5049212;28;20218;-42
2022/08/25 04:08:58;;;;;;;2.28;2.08;;;24.20;99.90;;;;;;5048255;28;20670;-42
2022/08/25 04:11:28;;;;;;;4.68;2.50;;;24.30;99.90;;;;;;5049722;28;20569;-42
2022/08/25 04:13:57;;;;;;;2.55;2.35;;;24.20;99.90;;;;;;5049070;28;20213;-47
2022/08/25 04:16:28;;;;;;;2.28;2.00;;;24.20;99.90;;;;;;5051720;28;20284;-46
2022/08/25 04:18:55;;;;;;;3.63;2.50;;;24.20;99.90;;;;;;5045265;28;20628;-44
2022/08/25 04:21:24;;;;;;;2.67;1.80;;;24.30;99.90;;;;;;5052902;28;20198;-42
2022/08/25 04:23:53;;;;;;;1.80;1.65;;;24.20;99.90;;;;;;5047774;28;20253;-43
2022/08/25 04:26:23;;;;;;;3.05;1.88;;;24.20;99.90;;;;;;5051701;28;20194;-43
2022/08/25 04:28:52;;;;;;;3.40;2.00;;;24.20;99.90;;;;;;5049122;28;20586;-44
2022/08/25 04:31:21;;;;;;;4.50;2.42;;;24.30;99.90;;;;;;5050086;28;20679;-47
2022/08/25 04:33:48;;;;;;;3.58;2.65;;;24.30;99.90;;;;;;5048176;28;20713;-46
2022/08/25 04:36:17;;;;;;;3.90;2.78;;;24.30;99.90;;;;;;5049133;28;20190;-44
2022/08/25 04:38:45;;;;;;;2.38;2.15;;;24.30;99.90;;;;;;5049829;28;20388;-43
2022/08/25 04:41:13;;;;;;;6.43;3.00;;;24.30;99.90;;;;;;5050890;28;20364;-42
2022/08/25 04:43:42;;;;;;;5.80;2.92;;;24.30;99.90;;;;;;5049753;28;20204;-43
2022/08/25 04:46:13;;;;;;;3.78;3.33;;;24.30;99.90;;;;;;5049175;28;20194;-50
2022/08/25 04:48:40;;;;;;;5.38;3.25;;;24.30;99.90;;;;;;5047288;28;20271;-49
2022/08/25 04:51:09;;;;;;;6.85;3.15;;;24.30;99.90;;;;;;5049285;28;20224;-46
2022/08/25 04:53:37;;;;;;;5.57;3.17;;;24.30;99.90;;;;;;5047512;28;20243;-51
2022/08/25 04:56:06;;;;;;;6.47;3.00;;;24.30;99.90;;;;;;5049522;28;20285;-50
2022/08/25 04:58:34;;;;;;;4.03;2.35;;;24.30;99.90;;;;;;5045710;28;20197;-45
2022/08/25 05:01:05;;;;;;;3.28;2.65;;;24.30;99.90;;;;;;5045028;28;20603;-49
2022/08/25 05:03:33;;;;;;;9.30;3.50;;;24.30;99.90;;;;;;5047881;28;20206;-41
2022/08/25 05:06:00;;;;;;;5.60;3.00;;;24.30;99.90;;;;;;5048723;28;20190;-43
2022/08/25 05:08:28;;;;;;;6.13;3.30;;;24.30;99.90;;;;;;5047852;28;20293;-45
2022/08/25 05:10:55;;;;;;;7.20;3.70;;;24.20;99.90;;;;;;5046688;28;20228;-44
2022/08/25 05:13:23;;;;;;;4.75;3.05;;;24.20;99.90;;;;;;5047900;28;20216;-42
2022/08/25 05:15:54;;;;;;;8.68;3.10;;;24.20;99.90;;;;;;5048255;28;20200;-43
2022/08/25 05:18:22;;;;;;;4.72;3.10;;;24.20;99.90;;;;;;5047307;28;20189;-43
2022/08/25 05:20:53;;;;;;;5.82;2.97;;;24.20;99.90;;;;;;5049085;28;20194;-45
2022/08/25 05:23:20;;;;;;;3.72;2.70;;;24.20;99.90;;;;;;5046500;28;20225;-44
2022/08/25 05:25:47;;;;;;;8.40;3.15;;;24.20;99.90;;;;;;5050460;28;20222;-42
2022/08/25 05:28:14;;;;;;;5.80;3.05;;;24.20;99.90;;;;;;5049811;28;20214;-42
2022/08/25 05:30:43;;;;;;;3.13;2.92;;;24.20;99.90;;;;;;5047739;28;20269;-42
2022/08/25 05:33:11;;;;;;;5.43;3.30;;;24.20;99.90;;;;;;5047918;28;20275;-46
2022/08/25 05:35:39;;;;;;;4.22;2.80;;;24.30;99.90;;;;;;5048266;28;20301;-45
2022/08/25 05:38:07;;;;;;;4.57;2.75;;;24.30;99.90;;;;;;5046192;28;20664;-45
2022/08/25 05:40:35;;;;;;;4.05;2.65;;;24.30;99.90;;;;;;5047430;28;20618;-45
2022/08/25 05:43:01;;;;;;;4.97;2.67;;;24.30;99.90;;;;;;5046320;28;20193;-47
2022/08/25 05:45:29;;;;;;;4.97;3.30;;;24.30;99.90;;;;;;5049987;28;20743;-43
2022/08/25 05:47:56;;;;;;;5.15;2.88;;;24.40;99.90;;;;;;5047727;28;20213;-46
2022/08/25 05:50:24;;;;;;;3.88;2.80;;;24.40;99.90;;;;;;5046549;28;20205;-43
2022/08/25 05:52:51;;;;;;;12.07;3.53;;;24.40;99.90;;;;;;5047508;28;20269;-44
2022/08/25 05:55:19;;;;;;;4.80;3.05;;;24.40;99.90;;;;;;5048820;28;20278;-44
2022/08/25 05:57:46;;;;;;;7.20;3.40;;;24.40;99.90;;;;;;5049468;28;20698;-43
2022/08/25 06:00:14;;;;;;;6.45;3.20;;;24.40;99.90;;;;;;5046788;28;20206;-43
2022/08/25 06:02:42;;;;;;;7.78;3.15;;;24.40;99.90;;;;;;5047270;28;20279;-42
2022/08/25 06:05:09;;;;;;;7.55;2.78;;;24.40;99.90;;;;;;5048156;28;20609;-44
2022/08/25 06:07:37;;;;;;;5.03;2.72;;;24.40;99.90;;;;;;5052559;28;20205;-47
2022/08/25 06:10:05;;;;;;;6.60;3.00;;;24.40;99.90;;;;;;5044933;28;20197;-44
2022/08/25 06:12:35;;;;;;;3.90;2.50;;;24.50;99.90;;;;;;5049999;28;20298;-43
2022/08/25 06:15:02;;;;;;;4.03;2.63;;;24.50;99.90;;;;;;5050880;28;20561;-44
2022/08/25 06:17:29;;;;;;;9.40;2.95;;;24.50;99.90;;;;;;5048817;28;20198;-45
2022/08/25 06:19:56;;;;;;;6.75;3.13;;;24.50;99.90;;;;;;5049646;28;20198;-44
2022/08/25 06:22:25;;;;;;;4.18;3.10;;;24.50;99.90;;;;;;5048620;28;20257;-43
2022/08/25 06:24:52;;;;;;;7.22;2.78;;;24.60;99.90;;;;;;5052466;28;20217;-44
2022/08/25 06:27:19;;;;;;;8.85;3.13;;;24.60;99.90;;;;;;5054119;28;20213;-46
2022/08/25 06:29:47;;;;;;;9.45;3.20;;;24.60;99.90;;;;;;5048461;28;20222;-44
2022/08/25 06:32:14;;;;;;;8.00;2.90;;;24.60;99.90;;;;;;5050816;28;20276;-42
2022/08/25 06:34:41;;;;;;;5.38;2.90;;;24.60;99.90;;;;;;5048069;28;20271;-43
2022/08/25 06:37:08;;;;;;;5.15;3.45;;;24.60;99.90;;;;;;5050853;28;20284;-46
2022/08/25 06:39:35;;;;;;;8.32;3.42;;;24.60;99.90;;;;;;5051342;28;20236;-44
2022/08/25 06:42:02;;;;;;;4.88;3.10;;;24.60;99.90;;;;;;5051610;28;20194;-46
2022/08/25 06:44:30;;;;;;;8.52;3.25;;;24.60;99.90;;;;;;5052273;28;20290;-46
2022/08/25 06:46:59;;;;;;;11.15;3.40;;;24.60;99.90;;;;;;5051108;28;20198;-43
2022/08/25 06:49:27;;;;;;;8.95;3.70;;;24.60;99.90;;;;;;5049130;28;20206;-41
2022/08/25 06:51:54;;;;;;;11.07;3.40;;;24.60;99.90;;;;;;5050566;28;20209;-43
2022/08/25 06:54:21;;;;;;;8.00;3.45;;;24.60;99.90;;;;;;5052568;28;20221;-43
2022/08/25 06:56:48;;;;;;;6.70;3.17;;;24.70;99.90;;;;;;5050186;28;20910;-44
2022/08/25 06:59:16;;;;;;;6.88;2.97;;;24.70;99.90;;;;;;5050169;28;20296;-43
2022/08/25 07:01:43;;;;;;;7.88;4.07;;;24.70;99.90;;;;;;5048592;28;20190;-49
2022/08/25 07:04:11;;;;;;;4.55;3.28;;;24.70;99.90;;;;;;5052512;28;20685;-44
2022/08/25 07:06:38;;;;;;;9.32;4.13;;;24.80;99.90;;;;;;5048742;28;20688;-48
2022/08/25 07:09:07;;;;;;;4.85;3.30;;;24.80;99.90;;;;;;5050127;28;20283;-44
2022/08/25 07:11:34;;;;;;;5.85;3.78;;;24.80;99.90;;;;;;5050304;28;20197;-46
2022/08/25 07:14:02;;;;;;;6.60;3.50;;;24.80;99.90;;;;;;5047689;28;20201;-50
2022/08/25 07:16:30;;;;;;;8.35;3.58;;;24.90;99.90;;;;;;5049281;28;20351;-49
2022/08/25 07:18:57;;;;;;;9.15;4.10;;;24.80;99.90;;;;;;5048969;28;20193;-47
2022/08/25 07:21:28;;;;;;;12.88;3.92;;;24.90;99.90;;;;;;5048419;28;20289;-48
2022/08/25 07:23:57;;;;;;;7.13;3.63;;;24.90;99.90;;;;;;5050997;28;20220;-49
2022/08/25 07:26:45;;;;;;;8.05;3.60;;;24.90;99.90;;;;;;5050557;28;20281;-48
2022/08/25 07:29:15;;;;;;;8.20;3.20;;;24.90;99.90;;;;;;5049730;28;20228;-42
2022/08/25 07:31:43;;;;;;;5.28;3.13;;;24.90;99.90;;;;;;5050152;28;20197;-49
2022/08/25 07:37:05;;;;;;;8.57;4.20;;;24.90;99.90;;;;;;5004200;28;20202;-51
2022/08/25 07:39:33;;;;;;;7.38;3.35;;;24.90;99.90;;;;;;5049137;28;20186;-46
2022/08/25 07:42:00;;;;;;;15.30;3.55;;;24.90;99.90;;;;;;5050786;28;20276;-49
2022/08/25 07:44:28;;;;;;;4.35;3.00;;;24.90;99.90;;;;;;5049805;28;20318;-50
2022/08/25 07:46:55;;;;;;;8.32;3.35;;;24.90;99.90;;;;;;5053269;28;20288;-46
2022/08/25 07:49:24;;;;;;;4.10;3.25;;;24.90;99.90;;;;;;5047799;28;20209;-49
2022/08/25 07:51:52;;;;;;;5.05;3.20;;;24.90;99.90;;;;;;5049881;28;20610;-50
2022/08/25 07:54:22;;;;;;;9.07;3.63;;;24.90;99.90;;;;;;5049598;28;20281;-46
2022/08/25 07:56:50;;;;;;;8.77;3.92;;;24.80;99.90;;;;;;5049346;28;20193;-45
2022/08/25 07:59:17;;;;;;;6.22;3.95;;;24.90;99.90;;;;;;5048258;28;20189;-45
2022/08/25 08:01:44;;;;;;;11.20;4.55;;;24.80;99.90;;;;;;5045261;28;20194;-48
2022/08/25 08:04:11;;;;;;;11.90;4.72;;;24.80;99.90;;;;;;5049296;28;20202;-51
2022/08/25 08:06:39;;;;;;;9.30;4.47;;;24.80;99.90;;;;;;5048996;28;20691;-48
2022/08/25 08:09:07;;;;;;;7.90;4.05;;;24.70;99.90;;;;;;5048469;28;20267;-47
2022/08/25 08:11:39;;;;;;;8.50;3.63;;;24.80;99.90;;;;;;5048717;28;20281;-52
2022/08/25 08:14:07;;;;;;;3.63;3.33;;;24.70;99.90;;;;;;5047936;28;20237;-46
2022/08/25 08:16:34;;;;;;;8.90;3.35;;;24.70;99.90;;;;;;5049332;28;20186;-51
2022/08/25 08:19:02;;;;;;;4.90;3.13;;;24.70;99.90;;;;;;5047485;28;20194;-46
2022/08/25 08:21:33;;;;;;;9.93;3.80;;;24.70;99.90;;;;;;5045952;28;20244;-45
2022/08/25 08:24:00;;;;;;;7.10;4.38;;;24.70;99.90;;;;;;5047022;28;20320;-48
2022/08/25 08:26:29;;;;;;;9.73;4.47;;;24.70;99.90;;;;;;5050372;28;20352;-45
2022/08/25 08:28:57;;;;;;;9.77;5.05;;;24.70;99.90;;;;;;5049854;28;20283;-50
2022/08/25 08:31:25;;;;;;;6.30;4.07;;;24.70;99.90;;;;;;5048839;28;20273;-47
2022/08/25 08:33:53;;;;;;;6.60;4.72;;;24.60;99.90;;;;;;5048185;28;20225;-52
2022/08/25 08:36:21;;;;;;;6.88;4.80;;;24.60;99.90;;;;;;5051428;28;20240;-48
2022/08/25 08:38:48;;;;;;;11.38;4.35;;;24.60;99.90;;;;;;5048143;28;20831;-43
2022/08/25 08:44:29;;;;;;;7.82;4.53;;;24.60;99.90;;;;;;5046025;28;20205;-50
2022/08/25 08:47:05;;;;;;;8.15;5.40;;;24.60;99.90;;;;;;5048797;28;20194;-47
2022/08/25 08:49:39;;;;;;;7.45;4.65;;;24.50;99.90;;;;;;5046596;28;20513;-45
2022/08/25 08:52:09;;;;;;;8.45;5.75;;;24.50;99.90;;;;;;5047020;28;20333;-45
2022/08/25 08:54:39;;;;;;;6.82;4.53;;;24.50;99.90;;;;;;5045586;28;20236;-43
2022/08/25 08:57:26;;;;;;;4.50;3.85;;;24.50;99.90;;;;;;5048178;28;20635;-42
2022/08/25 08:59:59;;;;;;;9.93;4.65;;;24.50;99.90;;;;;;5047833;28;20189;-43
2022/08/25 09:02:34;;;;;;;12.98;5.13;;;24.50;99.90;;;;;;5045488;28;20679;-46
2022/08/25 09:05:04;;;;;;;5.18;4.65;;;24.50;99.90;;;;;;5047579;28;20247;-42
2022/08/25 09:07:36;;;;;;;14.57;5.88;;;24.50;99.90;;;;;;5047979;28;20270;-44
2022/08/25 09:10:04;;;;;;;9.05;5.70;;;24.50;99.90;;;;;;5048894;28;20601;-43
2022/08/25 09:12:39;;;;;;;17.50;5.15;;;24.50;99.90;;;;;;5047208;28;20269;-41
2022/08/25 09:15:15;;;;;;;8.00;4.45;;;24.50;99.90;;;;;;5047594;28;20201;-42
2022/08/25 09:18:04;;;;;;;12.82;6.03;;;24.50;99.90;;;;;;5047349;28;20189;-42
2022/08/25 09:20:51;;;;;;;6.30;3.85;;;24.50;99.90;;;;;;5047863;28;20231;-43
2022/08/25 09:23:33;;;;;;;8.43;4.55;;;24.50;99.90;;;;;;5045489;28;20248;-42
2022/08/25 09:26:22;;;;;;;11.20;5.72;;;24.50;99.90;;;;;;5047587;28;20197;-43
2022/08/25 09:28:54;;;;;;;8.98;4.28;;;24.50;99.90;;;;;;5050988;28;20263;-44
2022/08/25 09:31:26;;;;;;;4.25;3.67;;;24.50;99.90;;;;;;5048028;28;20201;-45
2022/08/25 09:33:56;;;;;;;7.57;4.00;;;24.50;99.90;;;;;;5045956;28;20201;-43
2022/08/25 09:36:23;;;;;;;4.07;3.72;;;24.60;99.90;;;;;;5047884;28;20206;-43
2022/08/25 09:38:50;;;;;;;4.15;2.92;;;24.60;99.90;;;;;;5048147;28;20186;-42
2022/08/25 09:41:34;;;;;;;6.88;3.70;;;24.60;99.90;;;;;;5051549;28;20660;-42
2022/08/25 09:44:01;;;;;;;5.75;2.97;;;24.60;99.90;;;;;;5050301;28;20197;-44
2022/08/25 09:46:30;;;;;;;3.88;3.25;;;24.60;99.90;;;;;;5048604;28;20586;-45
2022/08/25 09:49:10;;;;;;;4.85;3.13;;;24.60;99.90;;;;;;5047495;28;20489;-40
2022/08/25 09:51:39;;;;;;;3.70;2.60;;;24.70;99.90;;;;;;5048691;28;20622;-43
2022/08/25 09:54:19;;;;;;;3.00;2.50;;;24.70;99.90;;;;;;5051201;28;20210;-42
2022/08/25 09:56:51;;;;;;;3.47;2.50;;;24.70;99.90;;;;;;5050749;28;20190;-48
2022/08/25 09:59:22;;;;;;;3.10;2.80;;;24.80;99.90;;;;;;5051131;28;20197;-47
2022/08/25 10:01:52;;;;;;;3.15;2.80;;;24.80;99.90;;;;;;5048852;28;20197;-47
2022/08/25 10:04:26;;;;;;;6.30;3.75;;;24.80;99.90;;;;;;5050792;28;20198;-48
2022/08/25 10:06:54;;;;;;;4.18;2.70;;;24.90;99.90;;;;;;5050114;28;20296;-50
2022/08/25 10:09:29;;;;;;;2.78;2.50;;;24.90;99.90;;;;;;5050912;28;20235;-48
2022/08/25 10:11:59;;;;;;;3.03;2.60;;;24.90;99.90;;;;;;5050326;28;20190;-46
2022/08/25 10:14:33;;;;;;;3.05;2.85;;;25.00;99.90;;;;;;5051171;28;20190;-43
2022/08/25 10:17:23;;;;;;;3.80;2.85;;;25.00;99.90;;;;;;5051658;28;20688;-48
2022/08/25 10:19:51;;;;;;;5.70;3.10;;;25.00;99.90;;;;;;5047204;28;20189;-50
2022/08/25 10:22:24;;;;;;;5.10;2.92;;;25.10;99.90;;;;;;5052922;28;20260;-46
2022/08/25 10:24:51;;;;;;;6.30;2.75;;;25.10;99.90;;;;;;5050731;28;20190;-49
2022/08/25 10:27:27;;;;;;;4.97;2.90;;;25.20;99.90;;;;;;5050822;28;20615;-47
2022/08/25 10:30:07;;;;;;;7.03;2.95;;;25.30;99.90;;;;;;5050746;28;20204;-50
2022/08/25 10:32:47;;;;;;;7.72;3.00;;;25.30;99.90;;;;;;5051437;28;20573;-49
2022/08/25 10:35:19;;;;;;;4.47;3.00;;;25.40;99.90;;;;;;5050456;28;20284;-48
2022/08/25 10:38:02;;;;;;;2.53;2.25;;;25.40;99.90;;;;;;5045760;28;20202;-46
2022/08/25 10:40:36;;;;;;;3.00;2.72;;;25.40;99.90;;;;;;5065455;28;20226;-46
2022/08/25 10:43:06;;;;;;;9.77;3.65;;;25.50;99.90;;;;;;5047133;28;20581;-48
2022/08/25 10:45:44;;;;;;;8.40;3.65;;;25.50;99.90;;;;;;5051733;28;20194;-44
2022/08/25 10:48:34;;;;;;;6.53;3.17;;;25.50;99.90;;;;;;5051250;28;20549;-42
2022/08/25 10:51:08;;;;;;;3.70;2.83;;;25.50;99.90;;;;;;5048919;28;20205;-45
2022/08/25 10:53:45;;;;;;;5.63;3.20;;;25.50;99.90;;;;;;5049744;28;20546;-46
2022/08/25 10:56:17;;;;;;;4.07;3.03;;;25.50;99.90;;;;;;5050798;28;20676;-46
2022/08/25 10:59:07;;;;;;;4.00;2.60;;;25.40;99.90;;;;;;5047070;28;20194;-46
2022/08/25 11:01:55;;;;;;;2.90;2.45;;;25.40;99.90;;;;;;5048795;28;20252;-47
2022/08/25 11:04:28;;;;;;;2.88;2.67;;;25.50;99.90;;;;;;5046785;28;20592;-45
2022/08/25 11:07:01;;;;;;;4.00;2.72;;;25.50;99.90;;;;;;5050195;28;20751;-48
2022/08/25 11:09:33;;;;;;;6.45;3.42;;;25.50;99.90;;;;;;5049082;28;20279;-50
2022/08/25 11:12:04;;;;;;;2.63;2.42;;;25.50;99.90;;;;;;5048736;28;20676;-45
2022/08/25 11:14:34;;;;;;;5.95;2.92;;;25.40;99.90;;;;;;5046130;28;20209;-47
2022/08/25 11:17:09;;;;;;;5.13;2.50;;;25.40;99.90;;;;;;5049625;28;20341;-44
2022/08/25 11:19:40;;;;;;;4.07;2.67;;;25.50;99.90;;;;;;5048889;28;20201;-50
2022/08/25 11:22:13;;;;;;;2.85;2.65;;;25.50;99.90;;;;;;5046002;28;20237;-48
2022/08/25 11:24:55;;;;;;;2.70;2.47;;;25.50;99.90;;;;;;5048337;28;20554;-48
2022/08/25 11:27:28;;;;;;;4.97;2.55;;;25.50;99.90;;;;;;5049651;28;20186;-47
2022/08/25 11:30:03;;;;;;;3.15;2.85;;;25.50;99.90;;;;;;5051230;28;20281;-46
2022/08/25 11:32:34;;;;;;;6.43;3.13;;;25.50;99.90;;;;;;5048441;28;20629;-44
2022/08/25 11:35:06;;;;;;;5.22;2.67;;;25.50;99.90;;;;;;5052205;28;20233;-45
2022/08/25 11:37:34;;;;;;;4.43;2.78;;;25.40;99.90;;;;;;5048667;28;20293;-43
2022/08/25 11:40:18;;;;;;;2.63;2.40;;;25.40;99.90;;;;;;5047379;28;20198;-43
2022/08/25 11:43:01;;;;;;;4.90;2.80;;;25.40;99.90;;;;;;5046715;28;20684;-47
2022/08/25 11:46:01;;;;;;;4.63;2.40;;;25.40;99.90;;;;;;5049634;28;20273;-47
2022/08/25 11:48:41;;;;;;;2.90;2.50;;;25.40;99.90;;;;;;5040432;28;20811;-44
2022/08/25 11:51:12;;;;;;;3.75;2.45;;;25.40;99.90;;;;;;5050393;28;20247;-49
2022/08/25 11:53:41;;;;;;;11.52;4.35;;;25.40;99.90;;;;;;5049594;28;20273;-43
2022/08/25 11:56:11;;;;;;;15.60;5.30;;;25.50;99.90;;;;;;5047913;28;20308;-41
2022/08/25 11:58:45;;;;;;;17.77;5.45;;;25.50;99.90;;;;;;5050201;28;20201;-47
2022/08/25 12:01:52;;;;;;;13.65;4.90;;;25.50;99.90;;;;;;5046094;28;20649;-47
2022/08/25 12:04:34;;;;;;;19.95;5.72;;;25.50;99.90;;;;;;5047309;28;20277;-49
2022/08/25 12:07:28;;;;;;;17.15;6.22;;;25.50;99.90;;;;;;5049421;28;20208;-41
2022/08/25 12:10:22;;;;;;;15.60;6.05;;;25.50;99.90;;;;;;5047966;28;20217;-50
2022/08/25 12:13:02;;;;;;;12.38;5.63;;;25.50;99.90;;;;;;5050844;28;20280;-49
2022/08/25 12:15:53;;;;;;;16.17;5.63;;;25.50;99.90;;;;;;5050853;28;20186;-43
2022/08/25 12:18:43;;;;;;;15.73;5.93;;;25.50;99.90;;;;;;5046734;28;20198;-49
2022/08/25 12:21:13;;;;;;;14.13;5.57;;;25.50;99.90;;;;;;5049635;28;20209;-40
2022/08/25 12:23:43;;;;;;;8.40;4.95;;;25.40;99.90;;;;;;5048060;28;20228;-44
2022/08/25 12:26:19;;;;;;;13.95;5.53;;;25.40;99.90;;;;;;5049621;28;20618;-40
2022/08/25 12:29:04;;;;;;;11.23;5.15;;;25.40;99.90;;;;;;5048148;28;20197;-58
2022/08/25 12:31:50;;;;;;;11.75;5.05;;;25.40;99.90;;;;;;5043771;28;20220;-44
2022/08/25 12:34:37;;;;;;;7.38;4.13;;;25.50;99.90;;;;;;5046012;28;20189;-46
2022/08/25 12:37:11;;;;;;;11.57;4.65;;;25.50;99.90;;;;;;5045398;28;20201;-53
2022/08/25 12:39:52;;;;;;;11.27;4.53;;;25.50;99.90;;;;;;5047151;28;20202;-52
2022/08/25 12:42:28;;;;;;;15.00;5.97;;;25.40;99.90;;;;;;5046848;28;20705;-45
2022/08/25 12:45:30;;;;;;;6.50;4.68;;;25.40;99.90;;;;;;5048000;28;20194;-50
2022/08/25 12:48:33;;;;;;;6.50;4.28;;;25.40;99.90;;;;;;5049467;28;20280;-47
2022/08/25 12:51:03;;;;;;;10.07;5.07;;;25.40;99.90;;;;;;5038033;28;20237;-44
2022/08/25 12:53:35;;;;;;;9.38;4.75;;;25.40;99.90;;;;;;5046493;28;20194;-48
2022/08/25 12:56:08;;;;;;;7.95;4.97;;;25.40;99.90;;;;;;5048360;28;20527;-47
2022/08/25 12:58:48;;;;;;;13.02;5.75;;;25.50;99.90;;;;;;5046998;28;20260;-44
2022/08/25 13:01:25;;;;;;;8.65;5.13;;;25.50;99.90;;;;;;5048139;28;20193;-45
2022/08/25 13:04:24;;;;;;;9.15;4.85;;;25.50;99.90;;;;;;5046871;28;20269;-49
2022/08/25 13:07:10;;;;;;;15.43;5.22;;;25.50;99.90;;;;;;5041591;28;20332;-50
2022/08/25 13:10:12;;;;;;;6.50;4.68;;;25.50;99.90;;;;;;5047048;28;20209;-44
2022/08/25 13:12:47;;;;;;;6.10;4.47;;;25.60;99.90;;;;;;5046911;28;20272;-49
2022/08/25 13:15:24;;;;;;;6.70;4.63;;;25.60;99.90;;;;;;5045467;28;20193;-47